Time;durP1;ratioP1;P1;durP2;ratioP2;P2;SDS_P1;SDS_P2;PMS_P1;PMS_P2;Temp;Humidity;BMP_temperature;BMP_pressure;BME280_temperature;BME280_humidity;BME280_pressure;Samples;Min_cycle;Max_cycle;Signal;HPM_P1;HPM_P2
2022/05/19 00:06:30;;;;;;;;;;;;;;;24.39;16.18;100528.25;4977014;28;20380;-82
2022/05/19 00:08:58;;;;;;;;;;;;;;;24.41;16.32;100526.06;4976642;28;19960;-78
2022/05/19 00:14:41;;;;;;;;;;;;;;;24.40;16.46;100523.59;4976933;28;19922;-78
2022/05/19 00:20:49;;;;;;;;;;;;;;;;;;;;;
2022/05/19 00:23:33;;;;;;;;;;;;;;;24.39;16.56;100506.41;4907746;29;19949;-78
2022/05/19 00:26:05;;;;;;;;;;;;;;;24.38;16.89;100513.75;4897332;29;19987;-78
2022/05/19 00:28:33;;;;;;;;;;;;;;;24.41;16.83;100512.41;4881154;29;19920;-78
2022/05/19 00:37:11;;;;;;;;;;;;;;;24.38;16.83;100521.94;4882880;29;19920;-78
2022/05/19 00:39:37;;;;;;;;;;;;;;;24.37;16.96;100520.31;4882274;29;20338;-78
2022/05/19 00:48:48;;;;;;;;;;;;;;;24.36;17.09;100529.59;4863836;29;19985;-81
2022/05/19 00:54:25;;;;;;;;;;;;;;;24.35;17.10;100538.06;4862836;29;19964;-79
2022/05/19 00:56:53;;;;;;;;;;;;;;;24.36;17.05;100529.59;4879355;29;19920;-79
2022/05/19 00:59:20;;;;;;;;;;;;;;;24.36;17.33;100529.59;4911240;29;19925;-81
2022/05/19 01:02:31;;;;;;;;;;;;;;;24.36;17.14;100531.53;4957244;29;19923;-79
2022/05/19 01:20:17;;;;;;;;;;;;;;;24.33;17.44;100540.25;4925798;28;20362;-79
2022/05/19 01:43:12;;;;;;;;;;;;;;;24.29;17.78;100572.78;4866045;29;19990;-80
2022/05/19 01:46:09;;;;;;;;;;;;;;;;;;;;;
2022/05/19 01:48:58;;;;;;;;;;;;;;;24.30;17.79;100576.31;4850426;29;20025;-78
2022/05/19 01:51:32;;;;;;;;;;;;;;;24.30;17.78;100584.50;4867867;29;19942;-78
2022/05/19 01:57:31;;;;;;;;;;;;;;;24.29;17.63;100583.69;4884384;29;19919;-80
2022/05/19 02:12:27;;;;;;;;;;;;;;;24.29;17.94;100582.88;4828757;29;19964;-79
2022/05/19 02:18:16;;;;;;;;;;;;;;;24.27;17.81;100591.34;4883976;29;19976;-78
2022/05/19 02:27:18;;;;;;;;;;;;;;;24.26;18.00;100588.88;4865068;29;19976;-80
2022/05/19 02:29:44;;;;;;;;;;;;;;;24.25;17.92;100592.69;4883200;29;19924;-81
2022/05/19 02:32:09;;;;;;;;;;;;;;;24.26;17.72;100588.88;4883623;29;20336;-79
2022/05/19 02:35:21;;;;;;;;;;;;;;;24.25;17.76;100584.50;4900315;29;20356;-78
2022/05/19 02:37:28;;;;;;;;;;;;;;;24.27;17.61;100587.81;4884917;29;19923;-80
2022/05/19 02:40:36;;;;;;;;;;;;;;;24.26;17.78;100594.34;4927681;29;19941;-80
2022/05/19 02:42:45;;;;;;;;;;;;;;;24.26;17.78;100606.09;4959210;29;19922;-80
2022/05/19 02:45:24;;;;;;;;;;;;;;;24.26;17.75;100608.00;4959010;29;19922;-78
2022/05/19 03:07:06;;;;;;;;;;;;;;;;;;;;;
2022/05/19 03:12:41;;;;;;;;;;;;;;;24.30;17.04;100606.34;4756006;30;19943;-79
2022/05/19 03:18:20;;;;;;;;;;;;;;;24.37;17.06;100607.72;4755741;30;20038;-78
2022/05/19 03:20:49;;;;;;;;;;;;;;;24.40;16.92;100606.34;4755380;30;20007;-79
2022/05/19 03:23:20;;;;;;;;;;;;;;;24.45;16.71;100603.59;4755249;30;19930;-81
2022/05/19 03:29:03;;;;;;;;;;;;;;;24.52;16.97;100620.53;4755200;30;20459;-79
2022/05/19 03:40:56;;;;;;;;;;;;;;;24.63;16.55;100629.59;4827322;29;19921;-79
2022/05/19 03:43:23;;;;;;;;;;;;;;;24.67;16.91;100627.13;4827340;29;20304;-80
2022/05/19 03:45:48;;;;;;;;;;;;;;;24.70;16.57;100621.09;4827217;29;20296;-79
2022/05/19 03:51:42;;;;;;;;;;;;;;;;;;;;;
2022/05/19 03:54:20;;;;;;;;;;;;;;;24.77;16.41;100615.31;4808134;29;19921;-78
2022/05/19 03:57:00;;;;;;;;;;;;;;;24.79;16.45;100616.69;4808680;29;19921;-78
2022/05/19 04:06:13;;;;;;;;;;;;;;;24.83;16.48;100642.38;4790985;29;19946;-79
2022/05/19 04:08:41;;;;;;;;;;;;;;;24.86;16.51;100641.81;4742365;30;20322;-82
2022/05/19 04:24:39;;;;;;;;;;;;;;;24.99;16.21;100654.09;4714157;30;19957;-78
2022/05/19 04:27:27;;;;;;;;;;;;;;;25.02;16.19;100661.72;4742707;30;19996;-78
2022/05/19 04:33:03;;;;;;;;;;;;;;;25.06;15.93;100672.94;4772096;30;19974;-79
2022/05/19 04:36:16;;;;;;;;;;;;;;;25.05;15.92;100672.13;4762145;30;20048;-78
2022/05/19 04:38:45;;;;;;;;;;;;;;;25.07;15.81;100680.03;4756104;30;20404;-78
2022/05/19 04:41:21;;;;;;;;;;;;;;;25.08;16.06;100681.69;4772864;30;20432;-78
2022/05/19 04:44:05;;;;;;;;;;;;;;;25.09;15.84;100673.22;4772897;30;19929;-79
2022/05/19 04:46:42;;;;;;;;;;;;;;;25.11;15.91;100686.59;4792147;29;20409;-78
2022/05/19 04:49:11;;;;;;;;;;;;;;;25.12;16.08;100682.78;4829582;29;20341;-78
2022/05/19 04:52:03;;;;;;;;;;;;;;;25.14;16.00;100680.56;4848821;29;19931;-78
2022/05/19 04:54:44;;;;;;;;;;;;;;;25.16;15.91;100688.50;4945108;28;19918;-78
2022/05/19 04:57:12;;;;;;;;;;;;;;;25.15;15.73;100692.31;5002389;28;19960;-82
2022/05/19 04:59:54;;;;;;;;;;;;;;;25.16;15.83;100704.91;5001123;28;20368;-78
2022/05/19 05:02:29;;;;;;;;;;;;;;;25.18;15.81;100706.28;5002217;28;19918;-79
2022/05/19 05:04:55;;;;;;;;;;;;;;;25.20;15.91;100705.97;5002888;28;20347;-79
2022/05/19 05:07:20;;;;;;;;;;;;;;;25.23;15.90;100711.75;5003538;28;19956;-77
2022/05/19 05:09:46;;;;;;;;;;;;;;;25.26;15.81;100705.72;5002438;28;19997;-78
2022/05/19 05:12:12;;;;;;;;;;;;;;;25.30;15.79;100706.81;5001575;28;19918;-79
2022/05/19 05:14:38;;;;;;;;;;;;;;;25.39;15.70;100709.78;5001735;28;19925;-79
2022/05/19 05:17:06;;;;;;;;;;;;;;;25.42;15.70;100722.09;5001616;28;19918;-78
2022/05/19 05:19:32;;;;;;;;;;;;;;;25.46;15.80;100720.44;4998894;28;20063;-80
2022/05/19 05:28:03;;;;;;;;;;;;;;;25.52;15.98;100724.78;4982864;28;20352;-79
2022/05/19 05:30:41;;;;;;;;;;;;;;;25.55;16.02;100718.75;4997019;28;20368;-81
2022/05/19 05:33:36;;;;;;;;;;;;;;;25.56;16.02;100720.41;4951683;28;20351;-78
2022/05/19 05:36:54;;;;;;;;;;;;;;;25.54;15.91;100722.59;4939378;29;19926;-80
2022/05/19 05:39:37;;;;;;;;;;;;;;;25.54;15.82;100725.31;4902815;29;20299;-78
2022/05/19 05:42:04;;;;;;;;;;;;;;;25.55;15.71;100729.69;4900864;29;20438;-76
2022/05/19 05:44:29;;;;;;;;;;;;;;;25.57;16.00;100727.50;4930611;29;20370;-74
2022/05/19 05:46:54;;;;;;;;;;;;;;;25.63;15.87;100740.06;4936953;29;19919;-74
2022/05/19 05:49:20;;;;;;;;;;;;;;;25.61;16.07;100742.28;4937264;29;19919;-73
2022/05/19 05:51:46;;;;;;;;;;;;;;;25.62;16.07;100735.69;4936538;29;19927;-73
2022/05/19 05:54:12;;;;;;;;;;;;;;;25.66;16.33;100734.03;4936450;29;19969;-73
2022/05/19 05:56:37;;;;;;;;;;;;;;;25.66;16.05;100736.78;4920556;29;19923;-71
2022/05/19 05:59:02;;;;;;;;;;;;;;;25.70;16.17;100742.50;4935519;29;20369;-72
2022/05/19 06:01:28;;;;;;;;;;;;;;;25.67;16.11;100738.41;4936200;29;19919;-71
2022/05/19 06:03:53;;;;;;;;;;;;;;;25.70;16.04;100741.69;4936244;29;19930;-71
2022/05/19 06:06:18;;;;;;;;;;;;;;;25.68;16.01;100734.59;4936307;29;19919;-71
2022/05/19 06:08:43;;;;;;;;;;;;;;;25.70;15.98;100736.19;4936101;29;19923;-71
2022/05/19 06:11:09;;;;;;;;;;;;;;;25.68;15.89;100741.94;4936328;29;19926;-71
2022/05/19 06:13:34;;;;;;;;;;;;;;;25.73;15.97;100743.84;5011240;28;19991;-72
2022/05/19 06:16:00;;;;;;;;;;;;;;;25.70;16.10;100730.72;5035563;28;19959;-71
2022/05/19 06:18:25;;;;;;;;;;;;;;;25.73;15.99;100724.69;5035558;28;20012;-72
2022/05/19 06:20:51;;;;;;;;;;;;;;;25.73;16.03;100744.66;5035288;28;20016;-71
2022/05/19 06:23:17;;;;;;;;;;;;;;;25.74;16.00;100748.25;5035109;28;20351;-71
2022/05/19 06:25:43;;;;;;;;;;;;;;;25.66;16.02;100753.22;5035559;28;19917;-73
2022/05/19 06:28:09;;;;;;;;;;;;;;;25.73;16.01;100752.06;5022221;28;20380;-73
2022/05/19 06:30:34;;;;;;;;;;;;;;;25.76;16.00;100757.00;5015412;28;19922;-73
2022/05/19 06:32:59;;;;;;;;;;;;;;;25.82;15.94;100751.22;5015092;28;19924;-73
2022/05/19 06:35:27;;;;;;;;;;;;;;;25.76;15.84;100757.00;5015535;28;19921;-73
2022/05/19 06:37:52;;;;;;;;;;;;;;;25.78;16.02;100750.13;5016050;28;20008;-73
2022/05/19 06:40:17;;;;;;;;;;;;;;;25.77;16.21;100751.25;4997828;28;19963;-72
2022/05/19 06:42:43;;;;;;;;;;;;;;;25.79;16.13;100743.56;5015169;28;19925;-73
2022/05/19 06:45:09;;;;;;;;;;;;;;;25.77;16.12;100744.94;5016014;28;19970;-73
2022/05/19 06:47:36;;;;;;;;;;;;;;;25.78;15.99;100741.91;5015315;28;19948;-72
2022/05/19 06:50:01;;;;;;;;;;;;;;;25.80;16.17;100747.94;4998238;28;20363;-73
2022/05/19 06:52:29;;;;;;;;;;;;;;;25.79;16.26;100761.91;5015562;28;19918;-73
2022/05/19 06:54:55;;;;;;;;;;;;;;;25.78;16.26;100765.72;5015020;28;20363;-72
2022/05/19 06:57:21;;;;;;;;;;;;;;;25.81;16.33;100770.66;5015323;28;19917;-72
2022/05/19 06:59:47;;;;;;;;;;;;;;;25.81;16.12;100765.19;5015159;28;20360;-73
2022/05/19 07:02:12;;;;;;;;;;;;;;;25.83;16.16;100762.97;5014719;28;20253;-74
2022/05/19 07:04:37;;;;;;;;;;;;;;;25.84;16.30;100772.84;4998465;28;19925;-73
2022/05/19 07:07:04;;;;;;;;;;;;;;;25.84;16.36;100770.91;4997375;28;20369;-70
2022/05/19 07:09:30;;;;;;;;;;;;;;;25.96;16.17;100773.34;5015799;28;19918;-71
2022/05/19 07:11:55;;;;;;;;;;;;;;;25.89;16.14;100775.56;4997930;28;20277;-70
2022/05/19 07:14:21;;;;;;;;;;;;;;;25.89;16.38;100778.28;4997619;28;20339;-70
2022/05/19 07:16:48;;;;;;;;;;;;;;;25.90;16.33;100779.91;4998480;28;19922;-69
2022/05/19 07:21:57;;;;;;;;;;;;;;;25.89;16.59;100783.75;5016023;28;20445;-70
2022/05/19 07:24:24;;;;;;;;;;;;;;;25.90;16.48;100785.38;5015871;28;19918;-70
2022/05/19 07:26:50;;;;;;;;;;;;;;;25.93;16.40;100795.78;5016001;28;19944;-71
2022/05/19 07:29:15;;;;;;;;;;;;;;;25.87;16.36;100791.41;5035749;28;19921;-71
2022/05/19 07:31:40;;;;;;;;;;;;;;;25.91;16.36;100792.50;5035504;28;19963;-71
2022/05/19 07:34:06;;;;;;;;;;;;;;;25.91;16.47;100789.78;5018032;28;19961;-70
2022/05/19 07:36:32;;;;;;;;;;;;;;;25.99;16.47;100782.91;5035773;28;19917;-71
2022/05/19 07:38:59;;;;;;;;;;;;;;;26.01;16.46;100781.53;5018009;28;19924;-70
2022/05/19 07:41:25;;;;;;;;;;;;;;;25.99;16.26;100778.28;5036058;28;20016;-70
2022/05/19 07:43:52;;;;;;;;;;;;;;;25.96;16.38;100784.31;5037024;28;19960;-70
2022/05/19 07:46:18;;;;;;;;;;;;;;;25.97;16.52;100780.44;5018435;28;20009;-71
2022/05/19 07:48:43;;;;;;;;;;;;;;;25.97;16.67;100780.44;5021106;28;19917;-73
2022/05/19 07:51:09;;;;;;;;;;;;;;;25.98;16.69;100768.41;5035749;28;20056;-70
2022/05/19 07:53:34;;;;;;;;;;;;;;;25.98;16.69;100775.81;5035803;28;19956;-70
2022/05/19 07:55:59;;;;;;;;;;;;;;;25.97;16.41;100779.63;5034938;28;19917;-71
2022/05/19 07:58:24;;;;;;;;;;;;;;;26.00;16.54;100774.41;5035656;28;19917;-70
2022/05/19 08:00:51;;;;;;;;;;;;;;;26.05;16.54;100781.78;5034423;28;19917;-70
2022/05/19 08:03:17;;;;;;;;;;;;;;;26.05;16.38;100785.34;5034675;28;19925;-76
2022/05/19 08:05:42;;;;;;;;;;;;;;;26.07;16.48;100789.72;5035653;28;19917;-72
2022/05/19 08:08:08;;;;;;;;;;;;;;;26.04;16.44;100797.41;5034291;28;20371;-70
2022/05/19 08:10:33;;;;;;;;;;;;;;;26.03;16.55;100790.28;5035848;28;19921;-70
2022/05/19 08:15:43;;;;;;;;;;;;;;;26.05;16.64;100792.75;5033979;28;19924;-69
2022/05/19 08:18:13;;;;;;;;;;;;;;;26.03;16.56;100794.97;5034543;28;19917;-70
2022/05/19 08:20:59;;;;;;;;;;;;;;;26.12;16.24;100797.91;5033534;28;20375;-69
2022/05/19 08:23:28;;;;;;;;;;;;;;;26.09;16.55;100802.03;5033701;28;19948;-69
2022/05/19 08:25:53;;;;;;;;;;;;;;;26.28;16.35;100809.59;5034728;28;19917;-70
2022/05/19 08:28:19;;;;;;;;;;;;;;;26.30;16.14;100810.97;5024043;28;20021;-70
2022/05/19 08:30:47;;;;;;;;;;;;;;;26.24;16.21;100809.34;5014107;28;20004;-70
2022/05/19 08:33:12;;;;;;;;;;;;;;;26.33;16.21;100815.88;5013966;28;19964;-70
2022/05/19 08:35:38;;;;;;;;;;;;;;;26.36;16.36;100809.81;5013727;28;20327;-69
2022/05/19 08:38:03;;;;;;;;;;;;;;;26.33;16.50;100804.91;5013484;28;20292;-69
2022/05/19 08:40:28;;;;;;;;;;;;;;;26.32;16.19;100803.28;5013966;28;20272;-71
2022/05/19 08:42:55;;;;;;;;;;;;;;;26.31;16.22;100807.13;4996058;28;20228;-70
2022/05/19 08:45:22;;;;;;;;;;;;;;;26.32;16.20;100802.44;4996014;28;19929;-70
2022/05/19 08:47:48;;;;;;;;;;;;;;;26.37;16.25;100800.53;4996108;28;19917;-70
2022/05/19 08:50:22;;;;;;;;;;;;;;;26.40;16.48;100802.66;5013523;28;20287;-70
2022/05/19 08:52:47;;;;;;;;;;;;;;;26.23;16.53;100802.22;5013705;28;20004;-70
2022/05/19 08:55:14;;;;;;;;;;;;;;;26.28;16.58;100802.19;5013318;28;20361;-70
2022/05/19 08:57:41;;;;;;;;;;;;;;;26.43;16.49;100810.31;5013404;28;19924;-70
2022/05/19 09:00:06;;;;;;;;;;;;;;;26.50;16.42;100810.00;4995873;28;19917;-71
2022/05/19 09:02:39;;;;;;;;;;;;;;;26.53;16.48;100806.72;5013300;28;19925;-69
2022/05/19 09:05:09;;;;;;;;;;;;;;;26.58;16.41;100811.34;4995866;28;20008;-70
2022/05/19 09:07:57;;;;;;;;;;;;;;;26.55;16.43;100817.38;4995268;28;19921;-69
2022/05/19 09:10:26;;;;;;;;;;;;;;;26.56;16.22;100816.28;4997979;28;19922;-71
2022/05/19 09:12:55;;;;;;;;;;;;;;;26.42;16.47;100835.28;5013190;28;19917;-70
2022/05/19 09:15:20;;;;;;;;;;;;;;;26.38;16.51;100835.03;5013262;28;20399;-70
2022/05/19 09:17:45;;;;;;;;;;;;;;;26.33;16.85;100843.25;5013335;28;19917;-70
2022/05/19 09:20:16;;;;;;;;;;;;;;;26.40;16.80;100848.44;5013151;28;19918;-70
2022/05/19 09:22:41;;;;;;;;;;;;;;;26.43;16.49;100840.47;4995375;28;19972;-70
2022/05/19 09:25:08;;;;;;;;;;;;;;;26.29;16.76;100836.72;5012978;28;20331;-70
2022/05/19 09:27:34;;;;;;;;;;;;;;;26.46;16.30;100833.63;5014465;28;19918;-70
2022/05/19 09:29:59;;;;;;;;;;;;;;;26.40;16.74;100829.25;5032811;28;19951;-71
2022/05/19 09:32:34;;;;;;;;;;;;;;;26.37;16.44;100838.03;5032606;28;20288;-70
2022/05/19 09:35:13;;;;;;;;;;;;;;;26.42;16.62;100840.75;5036494;28;19917;-70
2022/05/19 09:37:40;;;;;;;;;;;;;;;26.42;16.74;100847.06;5036836;28;19917;-71
2022/05/19 09:40:08;;;;;;;;;;;;;;;26.34;16.72;100847.66;5036276;28;19951;-71
2022/05/19 09:42:39;;;;;;;;;;;;;;;26.41;16.55;100852.84;5036437;28;19924;-71
2022/05/19 09:45:07;;;;;;;;;;;;;;;26.40;16.39;100849.25;5018710;28;19933;-71
2022/05/19 09:47:33;;;;;;;;;;;;;;;26.57;16.23;100834.38;5018302;28;19917;-71
2022/05/19 09:50:18;;;;;;;;;;;;;;;26.63;16.28;100841.50;5036023;28;20007;-70
2022/05/19 09:52:44;;;;;;;;;;;;;;;26.65;16.19;100835.69;5018667;28;19917;-71
2022/05/19 09:55:10;;;;;;;;;;;;;;;26.57;16.59;100831.63;5036315;28;19940;-71
2022/05/19 09:57:43;;;;;;;;;;;;;;;26.53;16.23;100825.09;5036081;28;19921;-71
2022/05/19 10:00:17;;;;;;;;;;;;;;;26.54;16.40;100823.97;5035869;28;19917;-70
2022/05/19 10:02:44;;;;;;;;;;;;;;;26.45;16.66;100817.47;5036069;28;20008;-71
2022/05/19 10:05:20;;;;;;;;;;;;;;;26.54;16.39;100821.22;5035731;28;20026;-71
2022/05/19 10:07:46;;;;;;;;;;;;;;;26.49;16.49;100824.84;5035403;28;19917;-72
2022/05/19 10:10:38;;;;;;;;;;;;;;;26.54;16.49;100821.22;5035815;28;20352;-72
2022/05/19 10:13:06;;;;;;;;;;;;;;;26.54;16.84;100821.22;5033278;28;19924;-71
2022/05/19 10:15:43;;;;;;;;;;;;;;;26.50;16.73;100815.50;5035966;28;19924;-71
2022/05/19 10:18:11;;;;;;;;;;;;;;;26.53;17.19;100814.94;5035972;28;19971;-72
2022/05/19 10:20:40;;;;;;;;;;;;;;;26.54;17.30;100810.25;5035281;28;19945;-70
2022/05/19 10:23:24;;;;;;;;;;;;;;;26.52;17.18;100813.28;5018005;28;19923;-71
2022/05/19 10:26:01;;;;;;;;;;;;;;;26.51;17.17;100810.81;5035500;28;20287;-70
2022/05/19 10:31:41;;;;;;;;;;;;;;;26.51;16.94;100800.69;5000959;28;19995;-70
2022/05/19 10:34:14;;;;;;;;;;;;;;;26.51;17.30;100806.19;5015530;28;19918;-70
2022/05/19 10:36:49;;;;;;;;;;;;;;;26.53;17.10;100801.22;5015255;28;20361;-70
2022/05/19 10:39:17;;;;;;;;;;;;;;;26.49;17.42;100802.91;5015388;28;19921;-70
2022/05/19 10:41:46;;;;;;;;;;;;;;;26.52;16.78;100807.81;5014773;28;19924;-69
2022/05/19 10:44:23;;;;;;;;;;;;;;;26.60;16.91;100806.38;5015077;28;19949;-71
2022/05/19 10:47:00;;;;;;;;;;;;;;;26.48;16.51;100805.94;5015415;28;20028;-71
2022/05/19 10:49:44;;;;;;;;;;;;;;;26.54;16.55;100805.59;4997282;28;19921;-71
2022/05/19 10:52:26;;;;;;;;;;;;;;;26.56;16.26;100808.03;5014730;28;20016;-71
2022/05/19 10:54:51;;;;;;;;;;;;;;;26.54;16.50;100804.78;4997075;28;20387;-72
2022/05/19 10:57:27;;;;;;;;;;;;;;;26.53;16.62;100803.16;5014553;28;19917;-71
2022/05/19 11:00:11;;;;;;;;;;;;;;;26.44;16.53;100816.66;5014464;28;19984;-71
2022/05/19 11:02:54;;;;;;;;;;;;;;;26.57;16.48;100820.66;5014625;28;19917;-71
2022/05/19 11:05:39;;;;;;;;;;;;;;;26.71;16.26;100815.38;5014576;28;20364;-72
2022/05/19 11:08:10;;;;;;;;;;;;;;;26.78;16.23;100804.91;5014498;28;20020;-71
2022/05/19 11:10:56;;;;;;;;;;;;;;;26.77;16.15;100809.56;5014420;28;19963;-71
2022/05/19 11:13:27;;;;;;;;;;;;;;;26.81;16.16;100806.28;4954180;29;19918;-71
2022/05/19 11:15:55;;;;;;;;;;;;;;;26.90;16.16;100802.59;4953869;29;20018;-72
2022/05/19 11:18:22;;;;;;;;;;;;;;;26.99;16.09;100805.53;4953579;29;19965;-70
2022/05/19 11:21:05;;;;;;;;;;;;;;;26.79;16.06;100798.31;4953789;29;20155;-72
2022/05/19 11:23:37;;;;;;;;;;;;;;;26.77;15.95;100793.13;4953548;29;20425;-71
2022/05/19 11:26:26;;;;;;;;;;;;;;;26.54;16.41;100788.34;4937874;29;20445;-71
2022/05/19 11:28:51;;;;;;;;;;;;;;;26.59;16.59;100793.78;4960549;28;19953;-72
2022/05/19 11:31:19;;;;;;;;;;;;;;;26.72;16.29;100795.09;4973086;28;19989;-72
2022/05/19 11:33:46;;;;;;;;;;;;;;;26.69;16.36;100801.97;4957029;28;19941;-74
2022/05/19 11:36:22;;;;;;;;;;;;;;;26.70;16.17;100809.09;4956775;28;19918;-73
2022/05/19 11:38:52;;;;;;;;;;;;;;;26.72;16.16;100812.34;4972986;28;19937;-74
2022/05/19 11:41:37;;;;;;;;;;;;;;;26.62;16.49;100798.72;4957097;28;19918;-74
2022/05/19 11:44:05;;;;;;;;;;;;;;;26.55;16.29;100804.50;4973127;28;19936;-74
2022/05/19 11:46:34;;;;;;;;;;;;;;;26.59;16.40;100799.25;4973262;28;19953;-74
2022/05/19 11:55:19;;;;;;;;;;;;;;;26.65;16.52;100811.03;5033809;28;20445;-73
2022/05/19 11:57:45;;;;;;;;;;;;;;;26.64;16.45;100810.22;5018828;28;19923;-73
2022/05/19 12:00:11;;;;;;;;;;;;;;;26.78;16.29;100811.19;5033802;28;20012;-72
2022/05/19 12:02:41;;;;;;;;;;;;;;;26.60;16.35;100809.94;5015923;28;20015;-72
2022/05/19 12:05:36;;;;;;;;;;;;;;;26.60;16.29;100814.63;5016102;28;19972;-70
2022/05/19 12:08:20;;;;;;;;;;;;;;;26.72;16.50;100809.63;4991786;28;19922;-69
2022/05/19 12:11:04;;;;;;;;;;;;;;;26.65;16.38;100802.81;4991885;28;20372;-70
2022/05/19 12:13:32;;;;;;;;;;;;;;;26.64;16.37;100815.69;4991895;28;19984;-71
2022/05/19 12:16:00;;;;;;;;;;;;;;;26.61;16.31;100818.97;4992095;28;20281;-70
2022/05/19 12:18:27;;;;;;;;;;;;;;;26.62;16.40;100823.41;4975610;28;19969;-70
2022/05/19 12:20:52;;;;;;;;;;;;;;;26.62;16.09;100815.16;4991541;28;19925;-70
2022/05/19 12:23:19;;;;;;;;;;;;;;;26.68;16.10;100811.31;4991712;28;19983;-70
2022/05/19 12:25:48;;;;;;;;;;;;;;;26.61;16.40;100818.97;4991896;28;19952;-71
2022/05/19 12:28:18;;;;;;;;;;;;;;;26.68;16.50;100815.94;4975032;28;20737;-71
2022/05/19 12:33:36;;;;;;;;;;;;;;;26.68;16.33;100815.94;4972517;28;20038;-70
2022/05/19 12:36:11;;;;;;;;;;;;;;;26.66;16.32;100823.66;4972311;28;19974;-69
2022/05/19 12:38:36;;;;;;;;;;;;;;;26.72;16.14;100817.84;4973240;28;19937;-68
2022/05/19 12:41:03;;;;;;;;;;;;;;;26.70;16.12;100822.78;4972294;28;19926;-69
2022/05/19 12:43:44;;;;;;;;;;;;;;;26.69;16.01;100823.06;4958250;28;20314;-70
2022/05/19 12:46:13;;;;;;;;;;;;;;;26.71;16.13;100832.63;4993454;28;20395;-69
2022/05/19 12:48:38;;;;;;;;;;;;;;;26.73;16.09;100838.69;4993651;28;19918;-71
2022/05/19 12:51:11;;;;;;;;;;;;;;;26.71;15.94;100845.53;4993631;28;19940;-72
2022/05/19 12:53:49;;;;;;;;;;;;;;;26.72;15.69;100838.97;4993526;28;20095;-71
2022/05/19 12:56:37;;;;;;;;;;;;;;;26.70;15.76;100847.47;4993924;28;19917;-71
2022/05/19 12:59:03;;;;;;;;;;;;;;;26.72;15.60;100839.78;4985854;28;19918;-70
2022/05/19 13:01:47;;;;;;;;;;;;;;;26.71;15.67;100837.31;4993838;28;19990;-70
2022/05/19 13:04:31;;;;;;;;;;;;;;;26.73;15.77;100837.84;4993858;28;19972;-70
2022/05/19 13:06:56;;;;;;;;;;;;;;;26.69;15.93;100840.34;4994383;28;20056;-70
2022/05/19 13:09:23;;;;;;;;;;;;;;;26.71;15.84;100846.34;4997803;28;20009;-71
2022/05/19 13:11:53;;;;;;;;;;;;;;;26.77;15.60;100847.16;4997527;28;20416;-71
2022/05/19 13:14:18;;;;;;;;;;;;;;;26.73;15.58;100844.16;4996470;28;19918;-71
2022/05/19 13:16:51;;;;;;;;;;;;;;;26.71;15.58;100843.59;4996581;28;20023;-71
2022/05/19 13:19:22;;;;;;;;;;;;;;;26.68;15.41;100838.72;4997618;28;20384;-71
2022/05/19 13:21:57;;;;;;;;;;;;;;;26.65;15.61;100844.75;4997277;28;19929;-71
2022/05/19 13:24:24;;;;;;;;;;;;;;;26.67;15.49;100842.56;4997498;28;20384;-69
2022/05/19 13:32:23;;;;;;;;;;;;;;;26.66;15.51;100848.31;5036724;28;20407;-68
2022/05/19 13:34:49;;;;;;;;;;;;;;;26.64;15.32;100853.28;5036825;28;19999;-68
2022/05/19 13:37:28;;;;;;;;;;;;;;;26.64;15.36;100843.13;5036482;28;20008;-68
2022/05/19 13:40:08;;;;;;;;;;;;;;;26.61;15.21;100847.22;5036436;28;19917;-69
2022/05/19 13:42:33;;;;;;;;;;;;;;;26.60;15.29;100848.31;5036676;28;20004;-68
2022/05/19 13:44:58;;;;;;;;;;;;;;;26.58;15.14;100849.72;5018838;28;20018;-68
2022/05/19 13:47:27;;;;;;;;;;;;;;;26.57;15.25;100853.56;5036914;28;19928;-68
2022/05/19 13:49:59;;;;;;;;;;;;;;;26.57;15.35;100848.88;5036776;28;19943;-69
2022/05/19 13:52:25;;;;;;;;;;;;;;;26.55;15.01;100848.34;5036538;28;20016;-68
2022/05/19 13:54:50;;;;;;;;;;;;;;;26.54;15.07;100851.38;5036772;28;19964;-68
2022/05/19 13:57:33;;;;;;;;;;;;;;;26.53;14.99;100856.03;5036752;28;19944;-67
2022/05/19 14:00:00;;;;;;;;;;;;;;;26.52;14.98;100856.31;5036589;28;20351;-67
2022/05/19 14:02:29;;;;;;;;;;;;;;;26.49;14.69;100857.72;5036446;28;19928;-67
2022/05/19 14:04:54;;;;;;;;;;;;;;;26.50;14.73;100853.06;5036406;28;20016;-69
2022/05/19 14:07:20;;;;;;;;;;;;;;;26.48;14.73;100860.75;5035936;28;19918;-70
2022/05/19 14:09:53;;;;;;;;;;;;;;;26.47;14.67;100856.34;5018457;28;19921;-70
2022/05/19 14:12:26;;;;;;;;;;;;;;;26.46;14.56;100857.44;5036138;28;19917;-70
2022/05/19 14:14:57;;;;;;;;;;;;;;;26.43;14.50;100856.91;5036021;28;19987;-70
2022/05/19 14:17:22;;;;;;;;;;;;;;;26.38;14.53;100856.94;5018318;28;20024;-70
2022/05/19 14:19:48;;;;;;;;;;;;;;;26.39;14.46;100863.25;5017418;28;20379;-70
2022/05/19 14:22:15;;;;;;;;;;;;;;;26.36;14.46;100864.63;5017999;28;19917;-70
2022/05/19 14:24:42;;;;;;;;;;;;;;;26.33;14.31;100861.63;5035812;28;19917;-70
2022/05/19 14:27:07;;;;;;;;;;;;;;;26.36;14.46;100869.28;5035633;28;19952;-70
2022/05/19 14:29:33;;;;;;;;;;;;;;;26.35;14.27;100865.72;5028516;28;19972;-71
2022/05/19 14:32:00;;;;;;;;;;;;;;;26.34;14.42;100872.31;5016625;28;20367;-70
2022/05/19 14:34:35;;;;;;;;;;;;;;;26.32;14.08;100869.03;5015714;28;20429;-70
2022/05/19 14:37:01;;;;;;;;;;;;;;;26.32;14.20;100863.56;5016385;28;19964;-70
2022/05/19 14:39:36;;;;;;;;;;;;;;;26.31;14.10;100861.91;5016230;28;20004;-71
2022/05/19 14:44:48;;;;;;;;;;;;;;;26.25;14.26;100860.31;5016572;28;19928;-71
2022/05/19 14:47:16;;;;;;;;;;;;;;;26.23;14.03;100859.75;5016268;28;19927;-71
2022/05/19 14:49:45;;;;;;;;;;;;;;;26.18;14.37;100863.34;5017005;28;19924;-71
2022/05/19 14:52:10;;;;;;;;;;;;;;;26.17;14.10;100866.38;5016170;28;19917;-71
2022/05/19 14:54:36;;;;;;;;;;;;;;;26.11;14.07;100862.81;5016808;28;19917;-71
2022/05/19 14:57:03;;;;;;;;;;;;;;;26.08;14.16;100857.91;5016943;28;19969;-70
2022/05/19 14:59:36;;;;;;;;;;;;;;;26.05;14.04;100859.28;4999218;28;19918;-71
2022/05/19 15:02:01;;;;;;;;;;;;;;;26.03;14.21;100866.16;5016936;28;19924;-71
2022/05/19 15:04:27;;;;;;;;;;;;;;;26.00;14.13;100866.72;5015618;28;20330;-70
2022/05/19 15:06:52;;;;;;;;;;;;;;;25.96;14.15;100860.97;5015363;28;19963;-67
2022/05/19 15:09:18;;;;;;;;;;;;;;;25.92;14.29;100859.03;4997834;28;20359;-69
2022/05/19 15:11:43;;;;;;;;;;;;;;;25.89;14.34;100865.91;5014947;28;19941;-68
2022/05/19 15:14:08;;;;;;;;;;;;;;;25.86;14.16;100864.53;5015268;28;19917;-69
2022/05/19 15:16:34;;;;;;;;;;;;;;;25.84;14.33;100863.19;5015179;28;20376;-68
2022/05/19 15:19:00;;;;;;;;;;;;;;;25.80;14.46;100862.06;5015124;28;19917;-68
2022/05/19 15:21:26;;;;;;;;;;;;;;;25.77;14.58;100858.00;5014724;28;20414;-68
2022/05/19 15:23:51;;;;;;;;;;;;;;;25.76;14.38;100858.28;5014992;28;20003;-68
2022/05/19 15:26:17;;;;;;;;;;;;;;;25.74;14.36;100863.22;5014594;28;19918;-68
2022/05/19 15:28:42;;;;;;;;;;;;;;;25.71;14.50;100863.75;4996905;28;19932;-69
2022/05/19 15:31:08;;;;;;;;;;;;;;;25.68;14.40;100865.97;5032132;28;19967;-69
2022/05/19 15:33:34;;;;;;;;;;;;;;;25.65;14.60;100861.03;5034283;28;20342;-69
2022/05/19 15:35:59;;;;;;;;;;;;;;;25.63;14.52;100860.50;5034559;28;19992;-68
2022/05/19 15:38:24;;;;;;;;;;;;;;;25.63;14.57;100863.22;5034273;28;19921;-68
2022/05/19 15:40:49;;;;;;;;;;;;;;;25.61;14.61;100865.44;5034252;28;19995;-68
2022/05/19 15:43:15;;;;;;;;;;;;;;;25.59;14.76;100862.13;5034529;28;19921;-68
2022/05/19 15:45:40;;;;;;;;;;;;;;;25.58;14.55;100857.78;5033946;28;19969;-71
2022/05/19 15:48:06;;;;;;;;;;;;;;;25.54;14.84;100864.88;5034419;28;19956;-71
2022/05/19 15:50:32;;;;;;;;;;;;;;;25.54;14.86;100864.88;5034101;28;20406;-72
2022/05/19 15:52:57;;;;;;;;;;;;;;;25.51;14.75;100862.72;5034025;28;19996;-71
2022/05/19 15:55:23;;;;;;;;;;;;;;;25.49;14.74;100852.03;5016523;28;20012;-71
2022/05/19 15:57:48;;;;;;;;;;;;;;;25.49;14.74;100853.94;5033853;28;19956;-71
2022/05/19 16:00:14;;;;;;;;;;;;;;;25.46;14.94;100858.06;5034318;28;19932;-71
2022/05/19 16:02:41;;;;;;;;;;;;;;;25.45;14.81;100855.59;5034356;28;20386;-71